sensor_id;sensor_type;location;lat;lon;timestamp;pressure;altitude;pressure_sealevel;temperature;humidity
70254;BME280;57649;42.968;1.608;2023-12-29T00:01:18;97833.31;;;3.01;100.00
70254;BME280;57649;42.968;1.608;2023-12-29T00:03:44;97825.28;;;3.03;100.00
70254;BME280;57649;42.968;1.608;2023-12-29T00:06:09;97819.69;;;2.95;100.00
70254;BME280;57649;42.968;1.608;2023-12-29T00:08:36;97824.03;;;2.96;100.00
70254;BME280;57649;42.968;1.608;2023-12-29T00:11:01;97811.00;;;2.93;100.00
70254;BME280;57649;42.968;1.608;2023-12-29T00:13:27;97808.16;;;2.96;100.00
70254;BME280;57649;42.968;1.608;2023-12-29T00:15:53;97806.03;;;3.01;100.00
70254;BME280;57649;42.968;1.608;2023-12-29T00:18:19;97810.59;;;2.99;100.00
70254;BME280;57649;42.968;1.608;2023-12-29T00:20:44;97814.91;;;3.00;100.00
70254;BME280;57649;42.968;1.608;2023-12-29T00:23:10;97815.78;;;2.87;100.00
70254;BME280;57649;42.968;1.608;2023-12-29T00:25:36;97817.94;;;2.82;100.00
70254;BME280;57649;42.968;1.608;2023-12-29T00:28:02;97821.22;;;2.73;100.00
70254;BME280;57649;42.968;1.608;2023-12-29T00:30:28;97807.03;;;2.74;100.00
70254;BME280;57649;42.968;1.608;2023-12-29T00:32:57;97808.66;;;2.64;100.00
70254;BME280;57649;42.968;1.608;2023-12-29T00:35:22;97809.06;;;2.70;100.00
70254;BME280;57649;42.968;1.608;2023-12-29T00:37:49;97805.22;;;2.75;99.67
70254;BME280;57649;42.968;1.608;2023-12-29T00:40:14;97808.41;;;2.80;99.25
70254;BME280;57649;42.968;1.608;2023-12-29T00:42:40;97803.75;;;2.83;98.93
70254;BME280;57649;42.968;1.608;2023-12-29T00:45:06;97801.09;;;2.83;100.00
70254;BME280;57649;42.968;1.608;2023-12-29T00:47:31;97794.88;;;2.84;100.00
70254;BME280;57649;42.968;1.608;2023-12-29T00:49:57;97802.34;;;2.91;100.00
70254;BME280;57649;42.968;1.608;2023-12-29T00:52:22;97803.97;;;2.80;100.00
70254;BME280;57649;42.968;1.608;2023-12-29T00:54:47;97796.38;;;2.63;100.00
70254;BME280;57649;42.968;1.608;2023-12-29T00:57:13;97798.59;;;2.56;100.00
70254;BME280;57649;42.968;1.608;2023-12-29T00:59:38;97793.63;;;2.64;100.00
70254;BME280;57649;42.968;1.608;2023-12-29T01:02:06;97801.03;;;2.72;100.00
70254;BME280;57649;42.968;1.608;2023-12-29T01:04:32;97806.50;;;2.69;100.00
70254;BME280;57649;42.968;1.608;2023-12-29T01:06:57;97813.72;;;2.67;100.00
70254;BME280;57649;42.968;1.608;2023-12-29T01:09:22;97813.09;;;2.63;100.00
70254;BME280;57649;42.968;1.608;2023-12-29T01:11:48;97805.06;;;2.65;100.00
70254;BME280;57649;42.968;1.608;2023-12-29T01:14:13;97788.56;;;2.61;100.00
70254;BME280;57649;42.968;1.608;2023-12-29T01:16:39;97800.28;;;2.70;100.00
70254;BME280;57649;42.968;1.608;2023-12-29T01:19:05;97800.59;;;2.65;100.00
70254;BME280;57649;42.968;1.608;2023-12-29T01:21:31;97812.25;;;2.63;100.00
70254;BME280;57649;42.968;1.608;2023-12-29T01:24:00;97816.25;;;2.68;100.00
70254;BME280;57649;42.968;1.608;2023-12-29T01:26:26;97809.41;;;2.66;100.00
70254;BME280;57649;42.968;1.608;2023-12-29T01:28:51;97814.16;;;2.61;100.00
70254;BME280;57649;42.968;1.608;2023-12-29T01:31:17;97823.47;;;2.54;100.00
70254;BME280;57649;42.968;1.608;2023-12-29T01:33:43;97819.47;;;2.48;100.00
70254;BME280;57649;42.968;1.608;2023-12-29T01:36:08;97824.56;;;2.38;100.00
70254;BME280;57649;42.968;1.608;2023-12-29T01:38:34;97825.59;;;2.36;100.00
70254;BME280;57649;42.968;1.608;2023-12-29T01:40:59;97829.59;;;2.28;100.00
70254;BME280;57649;42.968;1.608;2023-12-29T01:43:24;97818.19;;;2.28;100.00
70254;BME280;57649;42.968;1.608;2023-12-29T01:45:50;97817.75;;;2.34;100.00
70254;BME280;57649;42.968;1.608;2023-12-29T01:48:15;97808.47;;;2.28;100.00
70254;BME280;57649;42.968;1.608;2023-12-29T01:50:40;97818.09;;;2.29;100.00
70254;BME280;57649;42.968;1.608;2023-12-29T01:53:06;97810.38;;;2.26;100.00
70254;BME280;57649;42.968;1.608;2023-12-29T01:55:33;97807.44;;;2.31;100.00
70254;BME280;57649;42.968;1.608;2023-12-29T01:57:59;97809.75;;;2.36;100.00
70254;BME280;57649;42.968;1.608;2023-12-29T02:00:25;97806.78;;;2.53;99.77
70254;BME280;57649;42.968;1.608;2023-12-29T02:02:51;97814.91;;;2.50;99.34
70254;BME280;57649;42.968;1.608;2023-12-29T02:05:17;97820.81;;;2.54;99.25
70254;BME280;57649;42.968;1.608;2023-12-29T02:07:45;97806.16;;;2.49;99.84
70254;BME280;57649;42.968;1.608;2023-12-29T02:10:12;97803.91;;;2.56;99.26
70254;BME280;57649;42.968;1.608;2023-12-29T02:12:40;97794.69;;;2.62;97.69
70254;BME280;57649;42.968;1.608;2023-12-29T02:15:07;97805.88;;;2.65;96.86
70254;BME280;57649;42.968;1.608;2023-12-29T02:17:38;97801.97;;;2.71;96.68
70254;BME280;57649;42.968;1.608;2023-12-29T02:20:05;97802.63;;;2.62;99.43
70254;BME280;57649;42.968;1.608;2023-12-29T02:22:32;97811.63;;;2.59;99.02
70254;BME280;57649;42.968;1.608;2023-12-29T02:24:57;97807.63;;;2.41;100.00
70254;BME280;57649;42.968;1.608;2023-12-29T02:30:25;97805.28;;;2.36;100.00
70254;BME280;57649;42.968;1.608;2023-12-29T02:33:01;97803.19;;;2.41;100.00
70254;BME280;57649;42.968;1.608;2023-12-29T02:35:28;97790.22;;;2.38;100.00
70254;BME280;57649;42.968;1.608;2023-12-29T02:37:57;97782.91;;;2.42;100.00
70254;BME280;57649;42.968;1.608;2023-12-29T02:40:25;97792.81;;;2.51;99.50
70254;BME280;57649;42.968;1.608;2023-12-29T02:42:50;97779.72;;;2.49;100.00
70254;BME280;57649;42.968;1.608;2023-12-29T02:45:16;97786.25;;;2.57;99.87
70254;BME280;57649;42.968;1.608;2023-12-29T02:47:42;97783.47;;;2.58;99.52
70254;BME280;57649;42.968;1.608;2023-12-29T02:50:09;97787.94;;;2.58;99.71
70254;BME280;57649;42.968;1.608;2023-12-29T02:52:34;97791.75;;;2.54;99.34
70254;BME280;57649;42.968;1.608;2023-12-29T02:55:00;97780.75;;;2.60;98.53
70254;BME280;57649;42.968;1.608;2023-12-29T02:57:25;97771.13;;;2.59;98.76
70254;BME280;57649;42.968;1.608;2023-12-29T02:59:51;97780.31;;;2.66;97.79
70254;BME280;57649;42.968;1.608;2023-12-29T03:02:16;97772.91;;;2.58;99.56
70254;BME280;57649;42.968;1.608;2023-12-29T03:04:41;97767.94;;;2.66;96.73
70254;BME280;57649;42.968;1.608;2023-12-29T03:07:07;97763.91;;;2.74;94.49
70254;BME280;57649;42.968;1.608;2023-12-29T03:09:32;97766.19;;;2.78;95.25
70254;BME280;57649;42.968;1.608;2023-12-29T03:11:58;97760.50;;;2.84;97.00
70254;BME280;57649;42.968;1.608;2023-12-29T03:14:23;97743.91;;;2.82;98.09
70254;BME280;57649;42.968;1.608;2023-12-29T03:16:48;97743.91;;;2.82;96.12
70254;BME280;57649;42.968;1.608;2023-12-29T03:19:14;97743.44;;;2.88;96.65
70254;BME280;57649;42.968;1.608;2023-12-29T03:21:39;97746.81;;;2.91;96.46
70254;BME280;57649;42.968;1.608;2023-12-29T03:24:05;97745.75;;;2.93;96.72
70254;BME280;57649;42.968;1.608;2023-12-29T03:26:30;97728.31;;;2.91;96.14
70254;BME280;57649;42.968;1.608;2023-12-29T03:28:55;97731.16;;;2.87;96.12
70254;BME280;57649;42.968;1.608;2023-12-29T03:31:21;97719.13;;;2.83;97.45
70254;BME280;57649;42.968;1.608;2023-12-29T03:33:46;97718.41;;;2.81;96.19
70254;BME280;57649;42.968;1.608;2023-12-29T03:36:12;97713.63;;;2.86;95.47
70254;BME280;57649;42.968;1.608;2023-12-29T03:38:37;97720.81;;;2.84;95.62
70254;BME280;57649;42.968;1.608;2023-12-29T03:41:03;97724.19;;;2.86;96.05
70254;BME280;57649;42.968;1.608;2023-12-29T03:43:29;97717.81;;;2.89;96.69
70254;BME280;57649;42.968;1.608;2023-12-29T03:45:54;97700.72;;;2.82;97.77
70254;BME280;57649;42.968;1.608;2023-12-29T03:48:20;97702.06;;;2.87;97.24
70254;BME280;57649;42.968;1.608;2023-12-29T03:50:45;97703.03;;;2.86;96.15
70254;BME280;57649;42.968;1.608;2023-12-29T03:53:10;97699.09;;;2.92;95.78
70254;BME280;57649;42.968;1.608;2023-12-29T03:55:36;97688.16;;;2.97;96.30
70254;BME280;57649;42.968;1.608;2023-12-29T03:58:02;97704.03;;;2.97;96.56
70254;BME280;57649;42.968;1.608;2023-12-29T04:00:28;97707.59;;;3.08;95.78
70254;BME280;57649;42.968;1.608;2023-12-29T04:02:53;97692.41;;;2.99;96.12
70254;BME280;57649;42.968;1.608;2023-12-29T04:05:19;97701.06;;;3.01;96.53
70254;BME280;57649;42.968;1.608;2023-12-29T04:07:44;97697.47;;;3.02;96.47
70254;BME280;57649;42.968;1.608;2023-12-29T04:10:10;97700.78;;;3.17;95.98
70254;BME280;57649;42.968;1.608;2023-12-29T04:12:36;97668.53;;;3.12;96.41
70254;BME280;57649;42.968;1.608;2023-12-29T04:15:04;97671.78;;;3.16;95.01
70254;BME280;57649;42.968;1.608;2023-12-29T04:17:30;97689.63;;;3.25;93.08
70254;BME280;57649;42.968;1.608;2023-12-29T04:19:55;97687.38;;;3.32;93.64
70254;BME280;57649;42.968;1.608;2023-12-29T04:22:22;97694.09;;;3.36;91.46
70254;BME280;57649;42.968;1.608;2023-12-29T04:24:47;97698.06;;;3.30;93.22
70254;BME280;57649;42.968;1.608;2023-12-29T04:27:14;97693.59;;;3.31;94.73
70254;BME280;57649;42.968;1.608;2023-12-29T04:29:40;97703.50;;;3.40;94.59
70254;BME280;57649;42.968;1.608;2023-12-29T04:32:05;97703.28;;;3.43;94.23
70254;BME280;57649;42.968;1.608;2023-12-29T04:34:31;97702.56;;;3.52;93.13
70254;BME280;57649;42.968;1.608;2023-12-29T04:36:56;97706.19;;;3.62;93.39
70254;BME280;57649;42.968;1.608;2023-12-29T04:39:21;97691.41;;;3.60;93.51
70254;BME280;57649;42.968;1.608;2023-12-29T04:41:47;97699.97;;;3.75;89.63
70254;BME280;57649;42.968;1.608;2023-12-29T04:44:12;97694.19;;;3.81;89.72
70254;BME280;57649;42.968;1.608;2023-12-29T04:46:38;97692.63;;;3.78;89.66
70254;BME280;57649;42.968;1.608;2023-12-29T04:49:03;97690.34;;;3.74;91.66
70254;BME280;57649;42.968;1.608;2023-12-29T04:51:28;97680.94;;;3.70;90.63
70254;BME280;57649;42.968;1.608;2023-12-29T04:53:54;97669.84;;;3.64;90.99
70254;BME280;57649;42.968;1.608;2023-12-29T04:56:19;97666.38;;;3.64;91.38
70254;BME280;57649;42.968;1.608;2023-12-29T04:58:44;97665.75;;;3.60;91.50
70254;BME280;57649;42.968;1.608;2023-12-29T05:01:10;97666.03;;;3.69;91.77
70254;BME280;57649;42.968;1.608;2023-12-29T05:03:35;97674.41;;;3.62;93.42
70254;BME280;57649;42.968;1.608;2023-12-29T05:06:00;97670.44;;;3.57;93.43
70254;BME280;57649;42.968;1.608;2023-12-29T05:08:26;97678.38;;;3.57;93.53
70254;BME280;57649;42.968;1.608;2023-12-29T05:10:51;97683.44;;;3.60;91.09
70254;BME280;57649;42.968;1.608;2023-12-29T05:13:17;97692.94;;;3.51;91.35
70254;BME280;57649;42.968;1.608;2023-12-29T05:15:42;97685.97;;;3.50;91.71
70254;BME280;57649;42.968;1.608;2023-12-29T05:18:07;97681.84;;;3.46;93.31
70254;BME280;57649;42.968;1.608;2023-12-29T05:20:33;97694.34;;;3.44;95.15
70254;BME280;57649;42.968;1.608;2023-12-29T05:22:58;97690.53;;;3.48;95.35
70254;BME280;57649;42.968;1.608;2023-12-29T05:25:24;97692.69;;;3.43;97.03
70254;BME280;57649;42.968;1.608;2023-12-29T05:27:50;97684.34;;;3.36;99.04
70254;BME280;57649;42.968;1.608;2023-12-29T05:30:15;97681.22;;;3.42;97.40
70254;BME280;57649;42.968;1.608;2023-12-29T05:32:41;97677.31;;;3.48;96.13
70254;BME280;57649;42.968;1.608;2023-12-29T05:35:07;97682.72;;;3.46;96.05
70254;BME280;57649;42.968;1.608;2023-12-29T05:37:32;97649.34;;;3.44;96.78
70254;BME280;57649;42.968;1.608;2023-12-29T05:39:57;97674.50;;;3.50;95.21
70254;BME280;57649;42.968;1.608;2023-12-29T05:42:23;97679.19;;;3.46;94.18
70254;BME280;57649;42.968;1.608;2023-12-29T05:44:48;97663.59;;;3.54;94.12
70254;BME280;57649;42.968;1.608;2023-12-29T05:47:14;97670.94;;;3.62;91.61
70254;BME280;57649;42.968;1.608;2023-12-29T05:49:39;97657.56;;;3.52;92.78
70254;BME280;57649;42.968;1.608;2023-12-29T05:52:05;97660.34;;;3.51;93.27
70254;BME280;57649;42.968;1.608;2023-12-29T05:54:31;97667.28;;;3.52;94.29
70254;BME280;57649;42.968;1.608;2023-12-29T05:56:58;97662.38;;;3.58;93.72
70254;BME280;57649;42.968;1.608;2023-12-29T05:59:23;97668.19;;;3.63;93.14
70254;BME280;57649;42.968;1.608;2023-12-29T06:01:48;97652.91;;;3.67;93.51
70254;BME280;57649;42.968;1.608;2023-12-29T06:04:14;97660.47;;;3.72;93.06
70254;BME280;57649;42.968;1.608;2023-12-29T06:06:42;97660.25;;;3.75;94.14
70254;BME280;57649;42.968;1.608;2023-12-29T06:09:09;97641.47;;;3.66;94.79
70254;BME280;57649;42.968;1.608;2023-12-29T06:11:34;97650.75;;;3.72;95.11
70254;BME280;57649;42.968;1.608;2023-12-29T06:14:00;97654.72;;;3.66;94.54
70254;BME280;57649;42.968;1.608;2023-12-29T06:16:25;97633.28;;;3.70;93.34
70254;BME280;57649;42.968;1.608;2023-12-29T06:18:52;97643.53;;;3.74;93.80
70254;BME280;57649;42.968;1.608;2023-12-29T06:21:18;97651.81;;;3.70;93.93
70254;BME280;57649;42.968;1.608;2023-12-29T06:23:44;97663.59;;;3.65;95.13
70254;BME280;57649;42.968;1.608;2023-12-29T06:26:20;97666.25;;;3.77;94.49
70254;BME280;57649;42.968;1.608;2023-12-29T06:28:46;97663.97;;;3.72;94.68
70254;BME280;57649;42.968;1.608;2023-12-29T06:31:11;97659.75;;;3.70;94.53
70254;BME280;57649;42.968;1.608;2023-12-29T06:33:41;97663.38;;;3.69;95.52
70254;BME280;57649;42.968;1.608;2023-12-29T06:36:07;97670.50;;;3.79;96.01
70254;BME280;57649;42.968;1.608;2023-12-29T06:38:32;97663.13;;;3.72;96.07
70254;BME280;57649;42.968;1.608;2023-12-29T06:41:02;97656.16;;;3.82;93.74
70254;BME280;57649;42.968;1.608;2023-12-29T06:43:29;97654.09;;;3.85;94.31
70254;BME280;57649;42.968;1.608;2023-12-29T06:45:54;97644.84;;;3.91;92.44
70254;BME280;57649;42.968;1.608;2023-12-29T06:48:19;97636.66;;;4.05;91.26
70254;BME280;57649;42.968;1.608;2023-12-29T06:50:45;97625.69;;;4.21;90.64
70254;BME280;57649;42.968;1.608;2023-12-29T06:53:11;97620.50;;;4.20;90.46
70254;BME280;57649;42.968;1.608;2023-12-29T06:55:36;97624.94;;;4.31;89.15
70254;BME280;57649;42.968;1.608;2023-12-29T06:58:02;97617.47;;;4.24;90.32
70254;BME280;57649;42.968;1.608;2023-12-29T07:00:27;97614.94;;;4.23;89.08
70254;BME280;57649;42.968;1.608;2023-12-29T07:02:53;97616.25;;;4.40;87.25
70254;BME280;57649;42.968;1.608;2023-12-29T07:05:18;97611.28;;;4.47;86.04
70254;BME280;57649;42.968;1.608;2023-12-29T07:07:44;97613.91;;;4.47;85.90
70254;BME280;57649;42.968;1.608;2023-12-29T07:10:12;97616.69;;;4.56;85.61
70254;BME280;57649;42.968;1.608;2023-12-29T07:12:38;97619.69;;;4.52;86.05
70254;BME280;57649;42.968;1.608;2023-12-29T07:15:04;97619.63;;;4.42;88.31
70254;BME280;57649;42.968;1.608;2023-12-29T07:17:29;97624.53;;;4.47;89.44
70254;BME280;57649;42.968;1.608;2023-12-29T07:19:55;97618.06;;;4.28;90.01
70254;BME280;57649;42.968;1.608;2023-12-29T07:22:20;97622.53;;;4.28;91.04
70254;BME280;57649;42.968;1.608;2023-12-29T07:24:46;97628.94;;;4.25;90.83
70254;BME280;57649;42.968;1.608;2023-12-29T07:27:11;97624.22;;;4.17;93.29
70254;BME280;57649;42.968;1.608;2023-12-29T07:29:36;97625.22;;;4.05;95.92
70254;BME280;57649;42.968;1.608;2023-12-29T07:32:02;97636.28;;;4.10;96.63
70254;BME280;57649;42.968;1.608;2023-12-29T07:34:27;97630.50;;;3.94;98.63
70254;BME280;57649;42.968;1.608;2023-12-29T07:36:53;97647.59;;;4.01;99.22
70254;BME280;57649;42.968;1.608;2023-12-29T07:39:19;97651.44;;;4.08;99.13
70254;BME280;57649;42.968;1.608;2023-12-29T07:41:44;97642.16;;;4.14;97.78
70254;BME280;57649;42.968;1.608;2023-12-29T07:44:10;97649.88;;;4.17;97.11
70254;BME280;57649;42.968;1.608;2023-12-29T07:46:37;97656.16;;;4.16;96.40
70254;BME280;57649;42.968;1.608;2023-12-29T07:49:02;97652.91;;;4.23;94.92
70254;BME280;57649;42.968;1.608;2023-12-29T07:51:29;97653.34;;;4.40;93.44
70254;BME280;57649;42.968;1.608;2023-12-29T07:53:54;97649.13;;;4.37;92.93
70254;BME280;57649;42.968;1.608;2023-12-29T07:56:23;97653.34;;;4.40;91.69
70254;BME280;57649;42.968;1.608;2023-12-29T07:58:48;97654.31;;;4.39;91.37
70254;BME280;57649;42.968;1.608;2023-12-29T08:01:13;97656.38;;;4.24;93.51
70254;BME280;57649;42.968;1.608;2023-12-29T08:03:39;97666.97;;;4.24;95.24
70254;BME280;57649;42.968;1.608;2023-12-29T08:06:04;97670.47;;;4.24;96.58
70254;BME280;57649;42.968;1.608;2023-12-29T08:08:30;97662.41;;;4.26;96.40
70254;BME280;57649;42.968;1.608;2023-12-29T08:10:55;97662.75;;;4.33;95.59
70254;BME280;57649;42.968;1.608;2023-12-29T08:13:21;97671.06;;;4.28;94.70
70254;BME280;57649;42.968;1.608;2023-12-29T08:15:46;97678.06;;;4.29;95.66
70254;BME280;57649;42.968;1.608;2023-12-29T08:18:12;97678.16;;;4.39;94.66
70254;BME280;57649;42.968;1.608;2023-12-29T08:20:37;97682.88;;;4.35;95.08
70254;BME280;57649;42.968;1.608;2023-12-29T08:23:03;97681.19;;;4.34;94.22
70254;BME280;57649;42.968;1.608;2023-12-29T08:25:29;97687.34;;;4.35;97.08
70254;BME280;57649;42.968;1.608;2023-12-29T08:27:55;97686.13;;;4.28;98.57
70254;BME280;57649;42.968;1.608;2023-12-29T08:30:21;97688.91;;;4.26;98.95
70254;BME280;57649;42.968;1.608;2023-12-29T08:32:46;97684.31;;;4.39;99.12
70254;BME280;57649;42.968;1.608;2023-12-29T08:35:12;97678.84;;;4.52;97.19
70254;BME280;57649;42.968;1.608;2023-12-29T08:37:37;97681.50;;;4.52;96.38
70254;BME280;57649;42.968;1.608;2023-12-29T08:40:03;97671.16;;;4.60;94.19
70254;BME280;57649;42.968;1.608;2023-12-29T08:42:29;97685.81;;;4.76;93.23
70254;BME280;57649;42.968;1.608;2023-12-29T08:44:54;97684.97;;;4.75;93.09
70254;BME280;57649;42.968;1.608;2023-12-29T08:47:20;97683.63;;;4.81;94.37
70254;BME280;57649;42.968;1.608;2023-12-29T08:49:45;97687.59;;;4.87;91.66
70254;BME280;57649;42.968;1.608;2023-12-29T08:52:14;97697.44;;;4.96;91.90
70254;BME280;57649;42.968;1.608;2023-12-29T08:54:41;97708.53;;;5.01;92.27
70254;BME280;57649;42.968;1.608;2023-12-29T08:57:06;97711.00;;;5.14;91.61
70254;BME280;57649;42.968;1.608;2023-12-29T08:59:33;97705.16;;;5.31;90.60
70254;BME280;57649;42.968;1.608;2023-12-29T09:01:58;97715.06;;;5.50;89.73
70254;BME280;57649;42.968;1.608;2023-12-29T09:04:23;97711.97;;;5.45;90.60
70254;BME280;57649;42.968;1.608;2023-12-29T09:06:49;97712.19;;;5.53;92.62
70254;BME280;57649;42.968;1.608;2023-12-29T09:09:14;97713.13;;;5.52;92.77
70254;BME280;57649;42.968;1.608;2023-12-29T09:11:41;97722.59;;;5.66;93.18
70254;BME280;57649;42.968;1.608;2023-12-29T09:14:07;97716.75;;;5.72;92.67
70254;BME280;57649;42.968;1.608;2023-12-29T09:16:35;97714.16;;;5.82;92.08
70254;BME280;57649;42.968;1.608;2023-12-29T09:19:00;97718.84;;;5.90;89.92
70254;BME280;57649;42.968;1.608;2023-12-29T09:21:26;97722.53;;;5.98;89.54
70254;BME280;57649;42.968;1.608;2023-12-29T09:23:51;97716.03;;;5.91;89.03
70254;BME280;57649;42.968;1.608;2023-12-29T09:26:17;97723.75;;;5.94;90.66
70254;BME280;57649;42.968;1.608;2023-12-29T09:28:42;97719.41;;;5.93;90.16
70254;BME280;57649;42.968;1.608;2023-12-29T09:31:10;97729.91;;;6.16;89.44
70254;BME280;57649;42.968;1.608;2023-12-29T09:33:35;97730.88;;;6.15;88.73
70254;BME280;57649;42.968;1.608;2023-12-29T09:36:02;97729.00;;;6.27;87.48
70254;BME280;57649;42.968;1.608;2023-12-29T09:38:28;97728.00;;;6.28;87.16
70254;BME280;57649;42.968;1.608;2023-12-29T09:40:55;97726.97;;;6.50;86.85
70254;BME280;57649;42.968;1.608;2023-12-29T09:43:25;97732.41;;;6.48;85.73
70254;BME280;57649;42.968;1.608;2023-12-29T09:45:52;97732.59;;;6.57;87.18
70254;BME280;57649;42.968;1.608;2023-12-29T09:48:19;97734.31;;;6.67;86.96
70254;BME280;57649;42.968;1.608;2023-12-29T09:50:45;97734.75;;;6.72;86.03
70254;BME280;57649;42.968;1.608;2023-12-29T09:53:12;97738.31;;;7.02;84.63
70254;BME280;57649;42.968;1.608;2023-12-29T09:55:39;97737.75;;;6.89;84.73
70254;BME280;57649;42.968;1.608;2023-12-29T09:58:07;97731.19;;;7.03;83.07
70254;BME280;57649;42.968;1.608;2023-12-29T10:00:34;97738.03;;;6.96;84.90
70254;BME280;57649;42.968;1.608;2023-12-29T10:03:02;97739.97;;;6.93;85.96
70254;BME280;57649;42.968;1.608;2023-12-29T10:05:28;97747.00;;;7.04;84.17
70254;BME280;57649;42.968;1.608;2023-12-29T10:07:54;97744.22;;;6.96;86.76
70254;BME280;57649;42.968;1.608;2023-12-29T10:10:23;97745.22;;;7.15;86.12
70254;BME280;57649;42.968;1.608;2023-12-29T10:12:50;97742.28;;;7.27;85.97
70254;BME280;57649;42.968;1.608;2023-12-29T10:15:37;97740.47;;;7.47;84.06
70254;BME280;57649;42.968;1.608;2023-12-29T10:21:02;97739.47;;;7.48;83.06
70254;BME280;57649;42.968;1.608;2023-12-29T10:23:43;97734.00;;;7.60;82.92
70254;BME280;57649;42.968;1.608;2023-12-29T10:26:11;97737.09;;;7.65;80.98
70254;BME280;57649;42.968;1.608;2023-12-29T10:28:37;97735.13;;;7.67;81.03
70254;BME280;57649;42.968;1.608;2023-12-29T10:31:04;97723.75;;;7.75;82.04
70254;BME280;57649;42.968;1.608;2023-12-29T10:33:29;97719.66;;;7.90;81.78
70254;BME280;57649;42.968;1.608;2023-12-29T10:36:01;97727.34;;;8.03;81.90
70254;BME280;57649;42.968;1.608;2023-12-29T10:38:32;97710.53;;;8.02;80.83
70254;BME280;57649;42.968;1.608;2023-12-29T10:41:18;97710.91;;;8.07;79.66
70254;BME280;57649;42.968;1.608;2023-12-29T10:43:44;97721.56;;;8.17;78.27
70254;BME280;57649;42.968;1.608;2023-12-29T10:46:17;97716.50;;;8.14;77.70
70254;BME280;57649;42.968;1.608;2023-12-29T10:48:42;97715.91;;;8.20;77.33
70254;BME280;57649;42.968;1.608;2023-12-29T10:51:08;97716.59;;;8.32;76.37
70254;BME280;57649;42.968;1.608;2023-12-29T10:53:35;97719.94;;;8.44;76.06
70254;BME280;57649;42.968;1.608;2023-12-29T10:56:01;97720.22;;;8.41;76.51
70254;BME280;57649;42.968;1.608;2023-12-29T10:58:27;97715.03;;;8.29;76.84
70254;BME280;57649;42.968;1.608;2023-12-29T11:00:56;97721.78;;;8.43;76.73
70254;BME280;57649;42.968;1.608;2023-12-29T11:03:22;97716.16;;;8.46;76.87
70254;BME280;57649;42.968;1.608;2023-12-29T11:05:48;97710.75;;;8.56;77.18
70254;BME280;57649;42.968;1.608;2023-12-29T11:08:16;97718.84;;;8.64;75.31
70254;BME280;57649;42.968;1.608;2023-12-29T11:10:43;97727.28;;;8.70;76.41
70254;BME280;57649;42.968;1.608;2023-12-29T11:13:10;97710.69;;;8.76;75.42
70254;BME280;57649;42.968;1.608;2023-12-29T11:15:37;97708.78;;;8.86;74.61
70254;BME280;57649;42.968;1.608;2023-12-29T11:18:05;97697.81;;;8.89;73.71
70254;BME280;57649;42.968;1.608;2023-12-29T11:20:32;97687.66;;;8.93;74.87
70254;BME280;57649;42.968;1.608;2023-12-29T11:22:59;97689.81;;;9.07;74.66
70254;BME280;57649;42.968;1.608;2023-12-29T11:25:26;97690.66;;;9.08;74.78
70254;BME280;57649;42.968;1.608;2023-12-29T11:27:53;97681.13;;;9.05;73.51
70254;BME280;57649;42.968;1.608;2023-12-29T11:30:20;97683.31;;;9.10;73.45
70254;BME280;57649;42.968;1.608;2023-12-29T11:38:33;97661.41;;;9.06;72.94
70254;BME280;57649;42.968;1.608;2023-12-29T11:41:16;97650.19;;;9.02;73.50
70254;BME280;57649;42.968;1.608;2023-12-29T11:43:43;97658.59;;;9.08;74.62
70254;BME280;57649;42.968;1.608;2023-12-29T11:46:38;97660.88;;;9.20;74.40
70254;BME280;57649;42.968;1.608;2023-12-29T11:49:04;97654.84;;;9.00;73.73
70254;BME280;57649;42.968;1.608;2023-12-29T11:51:35;97643.63;;;8.97;75.60
70254;BME280;57649;42.968;1.608;2023-12-29T11:54:02;97640.13;;;8.96;72.71
70254;BME280;57649;42.968;1.608;2023-12-29T11:56:40;97641.91;;;9.05;75.40
70254;BME280;57649;42.968;1.608;2023-12-29T11:59:22;97635.34;;;9.18;73.67
70254;BME280;57649;42.968;1.608;2023-12-29T12:01:55;97626.41;;;9.27;71.41
70254;BME280;57649;42.968;1.608;2023-12-29T12:04:37;97626.16;;;9.38;71.33
70254;BME280;57649;42.968;1.608;2023-12-29T12:07:05;97621.31;;;9.60;72.52
70254;BME280;57649;42.968;1.608;2023-12-29T12:09:32;97631.22;;;9.68;72.87
70254;BME280;57649;42.968;1.608;2023-12-29T12:12:03;97628.72;;;9.74;73.40
70254;BME280;57649;42.968;1.608;2023-12-29T12:17:11;97610.06;;;9.82;74.09
70254;BME280;57649;42.968;1.608;2023-12-29T12:19:36;97610.06;;;9.82;72.73
70254;BME280;57649;42.968;1.608;2023-12-29T12:22:02;97610.28;;;9.89;72.00
70254;BME280;57649;42.968;1.608;2023-12-29T12:24:28;97617.31;;;9.90;72.53
70254;BME280;57649;42.968;1.608;2023-12-29T12:26:56;97618.03;;;10.00;73.93
70254;BME280;57649;42.968;1.608;2023-12-29T12:29:22;97605.84;;;10.06;72.88
70254;BME280;57649;42.968;1.608;2023-12-29T12:31:57;97607.25;;;10.18;73.68
70254;BME280;57649;42.968;1.608;2023-12-29T12:34:23;97596.38;;;10.20;74.01
70254;BME280;57649;42.968;1.608;2023-12-29T12:36:50;97594.88;;;10.26;74.24
70254;BME280;57649;42.968;1.608;2023-12-29T12:39:15;97589.97;;;10.39;73.51
70254;BME280;57649;42.968;1.608;2023-12-29T12:41:41;97578.09;;;10.42;71.87
70254;BME280;57649;42.968;1.608;2023-12-29T12:44:09;97575.78;;;10.47;71.48
70254;BME280;57649;42.968;1.608;2023-12-29T12:46:35;97576.78;;;10.54;72.58
70254;BME280;57649;42.968;1.608;2023-12-29T12:49:04;97575.44;;;10.50;73.19
70254;BME280;57649;42.968;1.608;2023-12-29T12:51:31;97571.44;;;10.54;72.50
70254;BME280;57649;42.968;1.608;2023-12-29T12:53:57;97563.88;;;10.49;71.95
70254;BME280;57649;42.968;1.608;2023-12-29T12:56:23;97568.91;;;10.52;71.05
70254;BME280;57649;42.968;1.608;2023-12-29T12:58:55;97568.25;;;10.58;70.14
70254;BME280;57649;42.968;1.608;2023-12-29T13:01:20;97569.47;;;10.72;70.74
70254;BME280;57649;42.968;1.608;2023-12-29T13:03:46;97559.94;;;10.70;69.93
70254;BME280;57649;42.968;1.608;2023-12-29T13:06:12;97561.75;;;10.69;69.25
70254;BME280;57649;42.968;1.608;2023-12-29T13:08:37;97557.91;;;10.64;71.63
70254;BME280;57649;42.968;1.608;2023-12-29T13:11:03;97556.75;;;10.66;70.33
70254;BME280;57649;42.968;1.608;2023-12-29T13:13:55;97563.25;;;10.64;70.42
70254;BME280;57649;42.968;1.608;2023-12-29T13:16:30;97549.91;;;10.72;70.60
70254;BME280;57649;42.968;1.608;2023-12-29T13:18:55;97545.88;;;10.76;71.07